createdAt,value
2019-01-14T00:02:20.489Z,5.25
2019-01-14T00:04:55.381Z,5.80
2019-01-14T00:07:19.317Z,5.00
2019-01-14T00:09:47.703Z,6.15
2019-01-14T00:12:16.106Z,5.80
2019-01-14T00:14:44.490Z,6.03
2019-01-14T00:17:12.947Z,5.95
2019-01-14T00:19:41.355Z,6.08
2019-01-14T00:22:29.082Z,5.33
2019-01-14T00:24:57.821Z,6.20
2019-01-14T00:27:26.506Z,5.50
2019-01-14T00:29:54.900Z,5.90
2019-01-14T00:32:23.305Z,5.22
2019-01-14T00:34:51.686Z,6.28
2019-01-14T00:37:20.078Z,5.90
2019-01-14T00:39:48.477Z,5.67
2019-01-14T00:42:17.295Z,6.20
2019-01-14T00:44:45.683Z,5.95
2019-01-14T00:47:14.088Z,5.83
2019-01-14T00:49:42.475Z,5.33
2019-01-14T00:52:10.874Z,5.80
2019-01-14T00:54:39.263Z,6.10
2019-01-14T00:57:07.650Z,5.08
2019-01-14T00:59:36.056Z,5.65
2019-01-14T01:04:58.784Z,4.80
2019-01-14T01:07:27.176Z,5.50
2019-01-14T01:09:55.559Z,5.25
2019-01-14T01:12:24.258Z,5.37
2019-01-14T01:15:12.129Z,5.55
2019-01-14T01:17:40.525Z,4.55
2019-01-14T01:20:48.819Z,5.30
2019-01-14T01:23:17.217Z,5.60
2019-01-14T01:25:45.621Z,5.45
2019-01-14T01:28:14.011Z,5.00
2019-01-14T01:30:42.395Z,5.45
2019-01-14T01:33:10.807Z,5.17
2019-01-14T01:35:39.190Z,5.78
2019-01-14T01:38:07.574Z,5.33
2019-01-14T01:40:35.978Z,5.47
2019-01-14T01:43:04.437Z,6.08
2019-01-14T01:45:32.842Z,5.17
2019-01-14T01:48:01.226Z,6.00
2019-01-14T01:50:29.617Z,5.00
2019-01-14T01:52:58.322Z,5.60
2019-01-14T01:55:26.779Z,5.17
2019-01-14T01:57:55.167Z,5.50
2019-01-14T02:00:23.572Z,5.50
2019-01-14T02:02:51.959Z,5.08
2019-01-14T02:05:20.483Z,6.00
2019-01-14T02:07:48.960Z,4.97
2019-01-14T02:10:57.257Z,5.85
2019-01-14T02:13:25.663Z,5.40
2019-01-14T02:15:54.382Z,5.25
2019-01-14T02:18:23.070Z,4.95
2019-01-14T02:20:51.473Z,5.50
2019-01-14T02:23:19.868Z,4.70
2019-01-14T02:25:48.251Z,6.10
2019-01-14T02:28:16.651Z,5.00
2019-01-14T02:30:45.107Z,5.40
2019-01-14T02:33:13.511Z,5.20
2019-01-14T02:35:41.904Z,6.33
2019-01-14T02:38:10.294Z,5.15
2019-01-14T02:40:38.700Z,6.00
2019-01-14T02:43:07.321Z,5.70
2019-01-14T02:45:35.716Z,4.70
2019-01-14T02:48:04.190Z,4.65
2019-01-14T02:50:32.914Z,5.85
2019-01-14T02:53:01.311Z,4.67
2019-01-14T02:55:29.978Z,5.47
2019-01-14T02:57:58.380Z,5.10
2019-01-14T03:01:06.932Z,5.65
2019-01-14T03:03:35.335Z,5.45
2019-01-14T03:06:03.786Z,5.30
2019-01-14T03:08:32.170Z,5.50
2019-01-14T03:11:00.571Z,5.70
2019-01-14T03:13:28.958Z,5.58
2019-01-14T03:16:11.843Z,5.70
2019-01-14T03:18:27.770Z,5.70
2019-01-14T03:20:56.466Z,5.40
2019-01-14T03:23:25.158Z,5.97
2019-01-14T03:26:12.659Z,5.70
2019-01-14T03:28:41.366Z,5.05
2019-01-14T03:31:09.766Z,5.75
2019-01-14T03:33:38.137Z,5.12
2019-01-14T03:36:06.608Z,6.65
2019-01-14T03:38:34.997Z,5.35
2019-01-14T03:41:03.671Z,5.42
2019-01-14T03:43:32.066Z,6.50
2019-01-14T03:46:00.458Z,5.85
2019-01-14T03:48:28.857Z,5.80
2019-01-14T03:50:57.242Z,6.03
2019-01-14T03:53:25.646Z,5.85
2019-01-14T03:55:54.038Z,5.70
2019-01-14T03:58:22.430Z,6.00
2019-01-14T04:00:51.116Z,5.50
2019-01-14T04:03:19.509Z,5.45
2019-01-14T04:05:47.907Z,5.00
2019-01-14T04:08:16.292Z,5.50
2019-01-14T04:10:44.694Z,5.03
2019-01-14T04:13:13.419Z,7.10
2019-01-14T04:15:41.875Z,5.65
2019-01-14T04:18:10.683Z,5.72
2019-01-14T04:20:39.071Z,5.62
2019-01-14T04:23:07.482Z,5.17
2019-01-14T04:25:36.103Z,5.28
2019-01-14T04:28:04.559Z,4.97
2019-01-14T04:30:32.954Z,6.00
2019-01-14T04:33:01.669Z,5.45
2019-01-14T04:35:30.062Z,5.42
2019-01-14T04:37:58.463Z,7.22
2019-01-14T04:40:26.856Z,5.60
2019-01-14T04:42:55.254Z,6.17
2019-01-14T04:45:23.659Z,6.03
2019-01-14T04:47:52.049Z,5.72
2019-01-14T04:51:00.367Z,5.72
2019-01-14T04:53:28.784Z,5.87
2019-01-14T04:55:57.170Z,5.92
2019-01-14T04:58:25.553Z,6.28
2019-01-14T05:00:53.956Z,6.50
2019-01-14T05:03:22.666Z,6.70
2019-01-14T05:05:51.351Z,6.60
2019-01-14T05:08:20.038Z,6.42
2019-01-14T05:10:48.725Z,6.37
2019-01-14T05:13:17.130Z,6.58
2019-01-14T05:15:45.520Z,6.62
2019-01-14T05:18:13.925Z,6.78
2019-01-14T05:20:42.314Z,6.15
2019-01-14T05:23:10.725Z,6.85
2019-01-14T05:25:39.360Z,6.20
2019-01-14T05:28:07.758Z,6.17
2019-01-14T05:30:36.151Z,6.08
2019-01-14T05:33:04.613Z,6.37
2019-01-14T05:35:52.599Z,6.60
2019-01-14T05:38:20.989Z,5.60
2019-01-14T05:40:49.660Z,5.87
2019-01-14T05:43:18.063Z,5.42
2019-01-14T05:45:46.717Z,5.65
2019-01-14T05:48:15.132Z,5.55
2019-01-14T05:50:43.516Z,5.92
2019-01-14T05:53:12.156Z,6.30
2019-01-14T05:55:40.798Z,6.35
2019-01-14T05:58:09.186Z,5.90
2019-01-14T06:03:17.355Z,5.90
2019-01-14T06:05:45.755Z,6.37
2019-01-14T06:08:14.146Z,5.95
2019-01-14T06:10:42.887Z,5.28
2019-01-14T06:13:11.278Z,6.55
2019-01-14T06:15:39.675Z,6.28
2019-01-14T06:18:08.155Z,6.55
2019-01-14T06:23:25.881Z,5.65
2019-01-14T06:25:54.663Z,5.62
2019-01-14T06:28:23.069Z,5.55
2019-01-14T06:30:51.474Z,5.70
2019-01-14T06:33:19.874Z,6.50
2019-01-14T06:35:48.279Z,5.72
2019-01-14T06:38:16.667Z,6.62
2019-01-14T06:40:45.349Z,5.62
2019-01-14T06:43:13.758Z,5.92
2019-01-14T06:45:42.152Z,5.65
2019-01-14T06:48:50.464Z,5.55
2019-01-14T06:51:18.857Z,6.08
2019-01-14T06:53:47.246Z,5.45
2019-01-14T06:56:15.647Z,5.55
2019-01-14T06:58:44.110Z,5.92
2019-01-14T07:01:12.511Z,5.60
2019-01-14T07:03:40.902Z,5.83
2019-01-14T07:06:09.315Z,5.58
2019-01-14T07:08:37.702Z,5.62
2019-01-14T07:13:55.188Z,5.40
2019-01-14T07:16:23.582Z,5.80
2019-01-14T07:18:51.983Z,5.67
2019-01-14T07:21:20.376Z,6.37
2019-01-14T07:23:48.769Z,6.25
2019-01-14T07:26:17.172Z,6.15
2019-01-14T07:28:45.565Z,5.97
2019-01-14T07:31:14.259Z,6.17
2019-01-14T07:33:42.943Z,6.25
2019-01-14T07:36:11.742Z,6.03
2019-01-14T07:38:40.146Z,6.10
2019-01-14T07:41:08.536Z,6.28
2019-01-14T07:43:36.925Z,7.00
2019-01-14T07:46:05.323Z,6.60
2019-01-14T07:48:33.710Z,6.72
2019-01-14T07:51:02.362Z,6.85
2019-01-14T07:53:31.001Z,7.53
2019-01-14T07:55:59.695Z,6.55
2019-01-14T07:58:28.096Z,7.00
2019-01-14T08:00:56.751Z,6.92
2019-01-14T08:03:25.373Z,5.67
2019-01-14T08:05:54.024Z,6.45
2019-01-14T08:08:22.705Z,7.03
2019-01-14T08:10:51.103Z,6.50
2019-01-14T08:13:19.495Z,7.22
2019-01-14T08:15:47.902Z,7.40
2019-01-14T08:18:16.287Z,8.40
2019-01-14T08:20:44.680Z,7.60
2019-01-14T08:23:13.138Z,7.70
2019-01-14T08:25:41.553Z,7.00
2019-01-14T08:28:29.300Z,6.95
2019-01-14T08:30:57.700Z,8.00
2019-01-14T08:33:26.358Z,9.30
2019-01-14T08:35:54.767Z,7.60
2019-01-14T08:38:23.150Z,6.65
2019-01-14T08:40:51.803Z,7.85
2019-01-14T08:43:20.490Z,7.70
2019-01-14T08:48:38.238Z,6.70
2019-01-14T08:51:06.930Z,6.97
2019-01-14T08:53:35.347Z,6.60
2019-01-14T08:56:03.754Z,7.95
2019-01-14T08:58:32.148Z,6.42
2019-01-14T09:01:00.551Z,8.15
2019-01-14T09:03:48.287Z,6.62
2019-01-14T09:06:16.688Z,7.15
2019-01-14T09:08:45.084Z,6.83
2019-01-14T09:11:13.620Z,7.35
2019-01-14T09:13:42.013Z,7.22
2019-01-14T09:16:10.418Z,7.70
2019-01-14T09:18:39.055Z,7.92
2019-01-14T09:21:07.464Z,8.55
2019-01-14T09:23:35.855Z,7.22
2019-01-14T09:26:04.315Z,8.08
2019-01-14T09:28:32.720Z,7.55
2019-01-14T09:31:01.463Z,6.95
2019-01-14T09:33:29.877Z,7.75
2019-01-14T09:35:58.268Z,7.97
2019-01-14T09:38:26.660Z,7.50
2019-01-14T09:40:55.067Z,7.85
2019-01-14T09:43:23.467Z,7.35
2019-01-14T09:45:51.861Z,6.83
2019-01-14T09:48:20.246Z,7.40
2019-01-14T09:50:48.657Z,7.53
2019-01-14T09:53:17.042Z,8.08
2019-01-14T09:55:45.434Z,8.08
2019-01-14T09:58:14.144Z,7.65
2019-01-14T10:00:42.826Z,8.48
2019-01-14T10:03:11.227Z,7.10
2019-01-14T10:05:39.627Z,8.33
2019-01-14T10:08:08.362Z,7.50
2019-01-14T10:10:37.039Z,8.98
2019-01-14T10:13:05.518Z,7.45
2019-01-14T10:15:34.212Z,7.85
2019-01-14T10:18:03.581Z,8.10
2019-01-14T10:20:32.405Z,7.40
2019-01-14T10:23:00.968Z,8.40
2019-01-14T10:25:29.372Z,8.75
2019-01-14T10:27:58.054Z,8.38
2019-01-14T10:30:26.441Z,8.55
2019-01-14T10:32:55.112Z,7.70
2019-01-14T10:35:23.800Z,8.43
2019-01-14T10:37:52.483Z,7.95
2019-01-14T10:40:20.871Z,8.65
2019-01-14T10:42:49.278Z,7.67
2019-01-14T10:45:20.375Z,7.87
2019-01-14T10:47:48.768Z,8.23
2019-01-14T10:50:17.515Z,8.33
2019-01-14T10:52:46.252Z,7.75
2019-01-14T10:55:15.413Z,7.50
2019-01-14T10:57:44.535Z,7.85
2019-01-14T11:00:18.487Z,7.72
2019-01-14T11:02:48.108Z,7.55
2019-01-14T11:05:21.343Z,7.10
2019-01-14T11:07:49.799Z,7.65
2019-01-14T11:10:18.325Z,6.85
2019-01-14T11:12:47.197Z,7.17
2019-01-14T11:15:17.724Z,7.22
2019-01-14T11:17:46.133Z,7.75
2019-01-14T11:20:28.456Z,7.42
2019-01-14T11:22:57.417Z,7.20
2019-01-14T11:25:26.127Z,8.53
2019-01-14T11:27:55.081Z,7.40
2019-01-14T11:30:26.273Z,8.15
2019-01-14T11:32:54.728Z,7.20
2019-01-14T11:35:23.138Z,7.92
2019-01-14T11:37:51.596Z,7.10
2019-01-14T11:40:25.681Z,5.87
2019-01-14T11:42:54.079Z,7.25
2019-01-14T11:45:22.472Z,7.40
2019-01-14T11:47:50.874Z,6.70
2019-01-14T11:50:19.399Z,7.08
2019-01-14T11:52:49.003Z,6.70
2019-01-14T11:55:17.793Z,6.60
2019-01-14T11:57:46.477Z,6.72
2019-01-14T12:00:18.251Z,7.35
2019-01-14T12:02:46.706Z,7.97
2019-01-14T12:05:15.244Z,6.75
2019-01-14T12:07:43.639Z,6.85
2019-01-14T12:10:12.368Z,6.85
2019-01-14T12:12:40.829Z,6.65
2019-01-14T12:15:15.176Z,6.55
2019-01-14T12:17:43.565Z,6.25
2019-01-14T12:20:15.975Z,6.37
2019-01-14T12:22:45.128Z,6.42
2019-01-14T12:25:14.005Z,7.22
2019-01-14T12:27:42.468Z,6.87
2019-01-14T12:30:16.545Z,7.00
2019-01-14T12:32:45.187Z,5.95
2019-01-14T12:35:13.575Z,6.47
2019-01-14T12:37:41.979Z,6.30
2019-01-14T12:40:12.884Z,6.03
2019-01-14T12:42:41.330Z,6.22
2019-01-14T12:45:12.976Z,7.12
2019-01-14T12:47:41.364Z,6.35
2019-01-14T12:50:13.060Z,6.20
2019-01-14T12:52:41.517Z,6.40
2019-01-14T12:55:12.368Z,5.58
2019-01-14T12:57:40.755Z,6.42
2019-01-14T13:00:15.255Z,6.58
2019-01-14T13:02:43.663Z,6.00
2019-01-14T13:05:13.487Z,6.80
2019-01-14T13:07:42.161Z,5.85
2019-01-14T13:10:12.941Z,6.67
2019-01-14T13:12:41.604Z,6.33
2019-01-14T13:15:13.398Z,7.03
2019-01-14T13:17:41.791Z,5.67
2019-01-14T13:20:12.924Z,5.40
2019-01-14T13:22:41.303Z,5.15
2019-01-14T13:25:09.832Z,4.95
2019-01-14T13:27:38.227Z,5.50
2019-01-14T13:30:09.655Z,5.00
2019-01-14T13:32:38.057Z,5.67
2019-01-14T13:35:07.049Z,5.10
2019-01-14T13:37:35.606Z,4.25
2019-01-14T13:40:09.726Z,4.35
2019-01-14T13:42:38.115Z,4.60
2019-01-14T13:45:09.565Z,5.03
2019-01-14T13:47:37.951Z,4.25
2019-01-14T13:50:09.761Z,4.95
2019-01-14T13:52:38.459Z,4.58
2019-01-14T13:55:07.677Z,4.92
2019-01-14T13:57:36.074Z,4.87
2019-01-14T14:00:07.303Z,5.25
2019-01-14T14:02:35.767Z,4.58
2019-01-14T14:05:06.041Z,4.80
2019-01-14T14:07:34.521Z,4.60
2019-01-14T14:10:03.050Z,4.90
2019-01-14T14:12:31.433Z,4.60
2019-01-14T14:14:59.829Z,4.40
2019-01-14T14:17:28.495Z,4.80
2019-01-14T14:19:56.902Z,5.10
2019-01-14T14:22:25.281Z,5.40
2019-01-14T14:24:53.687Z,4.80
2019-01-14T14:27:22.069Z,5.28
2019-01-14T14:29:50.796Z,4.80
2019-01-14T14:32:19.191Z,5.47
2019-01-14T14:34:47.581Z,5.55
2019-01-14T14:37:15.985Z,6.05
2019-01-14T14:39:48.491Z,5.90
2019-01-14T14:42:14.844Z,5.37
2019-01-14T14:44:43.250Z,5.65
2019-01-14T14:47:11.636Z,6.17
2019-01-14T14:49:40.391Z,5.60
2019-01-14T14:52:09.072Z,5.80
2019-01-14T14:54:37.760Z,5.35
2019-01-14T14:57:06.443Z,6.58
2019-01-14T14:59:34.831Z,6.05
2019-01-14T15:02:03.229Z,5.72
2019-01-14T15:04:31.889Z,6.20
2019-01-14T15:07:00.529Z,6.42
2019-01-14T15:09:31.779Z,6.20
2019-01-14T15:11:59.379Z,6.20
2019-01-14T15:14:27.760Z,6.20
2019-01-14T15:16:56.167Z,6.60
2019-01-14T15:19:24.824Z,6.60
2019-01-14T15:21:53.507Z,6.92
2019-01-14T15:24:21.910Z,6.30
2019-01-14T15:26:50.574Z,6.40
2019-01-14T15:29:18.979Z,6.53
2019-01-14T15:31:47.358Z,5.83
2019-01-14T15:34:15.748Z,6.22
2019-01-14T15:36:44.144Z,5.95
2019-01-14T15:39:12.879Z,7.00
2019-01-14T15:41:41.279Z,6.58
2019-01-14T15:44:09.666Z,6.85
2019-01-14T15:46:38.066Z,7.15
2019-01-14T15:49:06.453Z,7.40
2019-01-14T15:51:35.179Z,7.28
2019-01-14T15:54:03.966Z,6.80
2019-01-14T15:56:32.358Z,6.70
2019-01-14T15:59:00.761Z,7.25
2019-01-14T16:01:29.143Z,7.92
2019-01-14T16:03:57.543Z,7.80
2019-01-14T16:06:25.929Z,8.48
2019-01-14T16:08:54.323Z,9.00
2019-01-14T16:11:22.709Z,8.25
2019-01-14T16:13:51.104Z,9.18
2019-01-14T16:16:19.796Z,7.80
2019-01-14T16:18:48.483Z,8.30
2019-01-14T16:21:16.868Z,7.70
2019-01-14T16:23:45.276Z,7.22
2019-01-14T16:26:13.677Z,7.60
2019-01-14T16:29:01.746Z,7.25
2019-01-14T16:31:30.132Z,8.35
2019-01-14T16:33:58.535Z,7.70
2019-01-14T16:36:26.924Z,8.60
2019-01-14T16:38:55.312Z,7.50
2019-01-14T16:41:23.710Z,7.08
2019-01-14T16:43:52.091Z,7.50
2019-01-14T16:46:20.487Z,6.20
2019-01-14T16:48:48.873Z,7.70
2019-01-14T16:51:17.566Z,8.18
2019-01-14T16:53:45.953Z,7.50
2019-01-14T16:56:14.338Z,7.35
2019-01-14T16:59:02.075Z,7.65
2019-01-14T17:01:30.464Z,7.53
2019-01-14T17:03:58.863Z,8.20
2019-01-14T17:06:27.247Z,7.87
2019-01-14T17:08:55.650Z,8.03
2019-01-14T17:11:24.038Z,8.00
2019-01-14T17:13:52.444Z,8.00
2019-01-14T17:16:21.092Z,8.93
2019-01-14T17:18:49.775Z,7.95
2019-01-14T17:21:18.175Z,6.95
2019-01-14T17:23:46.847Z,8.15
2019-01-14T17:26:15.246Z,7.45
2019-01-14T17:28:43.796Z,7.22
2019-01-14T17:31:12.115Z,8.38
2019-01-14T17:33:40.506Z,7.30
2019-01-14T17:36:08.890Z,7.10
2019-01-14T17:38:37.292Z,7.30
2019-01-14T17:41:06.012Z,7.62
2019-01-14T17:43:34.404Z,6.90
2019-01-14T17:46:03.069Z,7.28
2019-01-14T17:48:31.755Z,6.80
2019-01-14T17:51:00.443Z,6.67
2019-01-14T17:53:28.832Z,7.00
2019-01-14T17:55:57.508Z,6.35
2019-01-14T17:58:26.128Z,6.83
2019-01-14T18:00:54.530Z,6.75
2019-01-14T18:03:22.916Z,7.28
2019-01-14T18:05:51.635Z,6.78
2019-01-14T18:08:20.319Z,6.10
2019-01-14T18:10:48.706Z,5.87
2019-01-14T18:13:17.103Z,6.75
2019-01-14T18:15:45.490Z,6.83
2019-01-14T18:18:13.891Z,6.58
2019-01-14T18:20:42.625Z,8.58
2019-01-14T18:23:12.316Z,7.65
2019-01-14T18:25:40.890Z,7.92
2019-01-14T18:28:09.284Z,7.33
2019-01-14T18:30:37.689Z,6.35
2019-01-14T18:33:06.081Z,7.03
2019-01-14T18:35:34.477Z,7.75
2019-01-14T18:38:02.862Z,7.20
2019-01-14T18:40:33.954Z,6.70
2019-01-14T18:43:01.632Z,6.40
2019-01-14T18:45:30.303Z,5.95
2019-01-14T18:47:58.691Z,6.50
2019-01-14T18:50:27.079Z,6.45
2019-01-14T18:52:55.463Z,6.15
2019-01-14T18:55:23.862Z,6.20
2019-01-14T18:57:52.252Z,6.65
2019-01-14T19:00:22.180Z,6.47
2019-01-14T19:02:50.751Z,6.40
2019-01-14T19:05:20.256Z,6.78
2019-01-14T19:07:48.848Z,6.62
2019-01-14T19:10:17.309Z,5.60
2019-01-14T19:12:45.708Z,6.20
2019-01-14T19:15:16.532Z,5.92
2019-01-14T19:17:45.162Z,5.87
2019-01-14T19:20:25.980Z,6.47
2019-01-14T19:22:54.362Z,6.90
2019-01-14T19:25:22.745Z,7.70
2019-01-14T19:27:51.480Z,5.95
2019-01-14T19:30:21.479Z,5.37
2019-01-14T19:32:50.688Z,5.80
2019-01-14T19:35:19.482Z,6.03
2019-01-14T19:37:48.173Z,6.25
2019-01-14T19:40:18.514Z,5.58
2019-01-14T19:42:47.049Z,6.65
2019-01-14T19:45:17.973Z,6.42
2019-01-14T19:47:46.369Z,6.70
2019-01-14T19:50:17.603Z,6.40
2019-01-14T19:52:46.348Z,5.85
2019-01-14T19:55:15.012Z,6.15
2019-01-14T19:57:43.804Z,6.72
2019-01-14T20:00:15.247Z,6.50
2019-01-14T20:02:43.940Z,5.80
2019-01-14T20:05:12.409Z,7.25
2019-01-14T20:07:41.207Z,6.97
2019-01-14T20:10:13.074Z,7.05
2019-01-14T20:12:41.524Z,6.95
2019-01-14T20:15:13.716Z,6.80
2019-01-14T20:17:42.125Z,6.50
2019-01-14T20:20:11.248Z,6.65
2019-01-14T20:22:39.650Z,6.65
2019-01-14T20:25:10.589Z,7.03
2019-01-14T20:27:39.045Z,7.10
2019-01-14T20:30:13.465Z,7.15
2019-01-14T20:32:42.096Z,7.58
2019-01-14T20:35:10.790Z,7.95
2019-01-14T20:37:39.164Z,6.28
2019-01-14T20:40:10.688Z,6.90
2019-01-14T20:42:39.165Z,6.80
2019-01-14T20:45:10.080Z,7.45
2019-01-14T20:47:38.485Z,6.72
2019-01-14T20:50:10.220Z,6.87
2019-01-14T20:52:39.056Z,6.85
2019-01-14T20:55:08.820Z,8.03
2019-01-14T20:57:37.206Z,7.65
2019-01-14T21:00:11.674Z,7.47
2019-01-14T21:02:40.061Z,8.05
2019-01-14T21:05:09.350Z,7.22
2019-01-14T21:07:37.749Z,6.60
2019-01-14T21:10:09.040Z,7.70
2019-01-14T21:12:37.507Z,7.47
2019-01-14T21:15:08.332Z,7.75
2019-01-14T21:17:36.982Z,7.25
2019-01-14T21:20:08.433Z,7.92
2019-01-14T21:22:36.819Z,8.55
2019-01-14T21:25:07.063Z,7.87
2019-01-14T21:27:35.444Z,8.05
2019-01-14T21:30:05.898Z,9.40
2019-01-14T21:32:34.625Z,8.28
2019-01-14T21:35:03.088Z,8.83
2019-01-14T21:37:31.485Z,8.93
2019-01-14T21:39:59.867Z,9.20
2019-01-14T21:42:28.549Z,7.65
2019-01-14T21:44:56.938Z,8.00
2019-01-14T21:47:32.504Z,8.13
2019-01-14T21:49:55.744Z,7.78
2019-01-14T21:52:24.126Z,8.68
2019-01-14T21:54:52.762Z,9.43
2019-01-14T21:57:21.158Z,10.35
2019-01-14T21:59:49.607Z,10.50
2019-01-14T22:02:18.003Z,8.93
2019-01-14T22:04:46.719Z,9.40
2019-01-14T22:07:15.124Z,9.00
2019-01-14T22:09:43.510Z,9.70
2019-01-14T22:12:11.896Z,10.25
2019-01-14T22:14:40.291Z,9.25
2019-01-14T22:17:08.676Z,9.75
2019-01-14T22:19:37.083Z,10.78
2019-01-14T22:22:05.780Z,9.83
2019-01-14T22:24:34.181Z,9.73
2019-01-14T22:27:02.585Z,10.38
2019-01-14T22:29:31.002Z,11.18
2019-01-14T22:31:59.632Z,10.85
2019-01-14T22:34:28.032Z,10.75
2019-01-14T22:36:56.422Z,10.03
2019-01-14T22:39:24.829Z,10.45
2019-01-14T22:41:53.226Z,10.85
2019-01-14T22:44:21.614Z,10.10
2019-01-14T22:46:50.012Z,10.15
2019-01-14T22:49:18.415Z,11.20
2019-01-14T22:51:46.818Z,9.65
2019-01-14T22:54:15.205Z,10.40
2019-01-14T22:56:43.908Z,9.68
2019-01-14T22:59:12.314Z,9.58
2019-01-14T23:01:41.302Z,10.15
2019-01-14T23:04:09.702Z,9.55
2019-01-14T23:06:38.088Z,11.12
2019-01-14T23:09:46.397Z,9.28
2019-01-14T23:12:14.779Z,9.33
2019-01-14T23:14:43.161Z,9.10
2019-01-14T23:17:11.557Z,9.60
2019-01-14T23:19:39.941Z,9.40
2019-01-14T23:22:08.358Z,8.78
2019-01-14T23:24:37.010Z,9.55
2019-01-14T23:27:05.471Z,8.18
2019-01-14T23:29:34.182Z,8.40
2019-01-14T23:32:02.801Z,8.43
2019-01-14T23:34:31.452Z,8.05
2019-01-14T23:37:00.149Z,8.43
2019-01-14T23:39:28.543Z,8.33
2019-01-14T23:42:00.489Z,8.13
2019-01-14T23:44:27.051Z,7.95
2019-01-14T23:46:55.709Z,8.30
2019-01-14T23:49:24.096Z,8.15
2019-01-14T23:51:52.495Z,9.03
2019-01-14T23:54:21.141Z,7.62
2019-01-14T23:56:49.827Z,8.33
2019-01-14T23:59:18.213Z,9.10
